sensor_id;sensor_type;location;lat;lon;timestamp;P1;durP1;ratioP1;P2;durP2;ratioP2
9761;SDS011;4920;49.594;11.022;2024-01-15T00:00:23;49.10;;;19.23;;
9761;SDS011;4920;49.594;11.022;2024-01-15T00:02:52;44.23;;;18.60;;
9761;SDS011;4920;49.594;11.022;2024-01-15T00:05:21;44.77;;;18.07;;
9761;SDS011;4920;49.594;11.022;2024-01-15T00:07:50;50.73;;;20.20;;
9761;SDS011;4920;49.594;11.022;2024-01-15T00:10:19;50.17;;;19.47;;
9761;SDS011;4920;49.594;11.022;2024-01-15T00:12:48;51.03;;;19.20;;
9761;SDS011;4920;49.594;11.022;2024-01-15T00:15:17;45.67;;;17.83;;
9761;SDS011;4920;49.594;11.022;2024-01-15T00:17:47;48.07;;;18.83;;
9761;SDS011;4920;49.594;11.022;2024-01-15T00:20:16;44.90;;;18.43;;
9761;SDS011;4920;49.594;11.022;2024-01-15T00:22:45;45.10;;;18.10;;
9761;SDS011;4920;49.594;11.022;2024-01-15T00:25:14;44.80;;;19.03;;
9761;SDS011;4920;49.594;11.022;2024-01-15T00:27:44;50.40;;;19.47;;
9761;SDS011;4920;49.594;11.022;2024-01-15T00:30:14;47.87;;;19.47;;
9761;SDS011;4920;49.594;11.022;2024-01-15T00:32:43;49.77;;;19.60;;
9761;SDS011;4920;49.594;11.022;2024-01-15T00:35:13;48.97;;;18.50;;
9761;SDS011;4920;49.594;11.022;2024-01-15T00:37:43;48.53;;;19.63;;
9761;SDS011;4920;49.594;11.022;2024-01-15T00:40:12;47.20;;;18.07;;
9761;SDS011;4920;49.594;11.022;2024-01-15T00:42:40;47.07;;;18.73;;
9761;SDS011;4920;49.594;11.022;2024-01-15T00:45:09;49.20;;;18.50;;
9761;SDS011;4920;49.594;11.022;2024-01-15T00:47:39;44.80;;;18.53;;
9761;SDS011;4920;49.594;11.022;2024-01-15T00:50:08;50.80;;;19.40;;
9761;SDS011;4920;49.594;11.022;2024-01-15T00:52:39;45.70;;;18.23;;
9761;SDS011;4920;49.594;11.022;2024-01-15T00:55:08;50.13;;;19.17;;
9761;SDS011;4920;49.594;11.022;2024-01-15T00:57:37;44.63;;;18.53;;
9761;SDS011;4920;49.594;11.022;2024-01-15T01:00:06;49.07;;;18.63;;
9761;SDS011;4920;49.594;11.022;2024-01-15T01:02:36;48.43;;;19.30;;
9761;SDS011;4920;49.594;11.022;2024-01-15T01:05:05;46.83;;;18.60;;
9761;SDS011;4920;49.594;11.022;2024-01-15T01:07:34;44.40;;;17.50;;
9761;SDS011;4920;49.594;11.022;2024-01-15T01:10:06;49.83;;;18.83;;
9761;SDS011;4920;49.594;11.022;2024-01-15T01:12:35;50.33;;;19.43;;
9761;SDS011;4920;49.594;11.022;2024-01-15T01:15:04;46.33;;;18.10;;
9761;SDS011;4920;49.594;11.022;2024-01-15T01:17:34;50.43;;;19.47;;
9761;SDS011;4920;49.594;11.022;2024-01-15T01:20:04;45.97;;;18.53;;
9761;SDS011;4920;49.594;11.022;2024-01-15T01:22:36;44.60;;;17.93;;
9761;SDS011;4920;49.594;11.022;2024-01-15T01:25:07;44.57;;;17.63;;
9761;SDS011;4920;49.594;11.022;2024-01-15T01:27:37;46.67;;;18.77;;
9761;SDS011;4920;49.594;11.022;2024-01-15T01:30:06;49.73;;;19.33;;
9761;SDS011;4920;49.594;11.022;2024-01-15T01:32:35;43.60;;;17.93;;
9761;SDS011;4920;49.594;11.022;2024-01-15T01:35:05;46.30;;;18.63;;
9761;SDS011;4920;49.594;11.022;2024-01-15T01:37:34;43.10;;;18.47;;
9761;SDS011;4920;49.594;11.022;2024-01-15T01:40:03;43.40;;;18.63;;
9761;SDS011;4920;49.594;11.022;2024-01-15T01:42:36;44.43;;;18.37;;
9761;SDS011;4920;49.594;11.022;2024-01-15T01:45:06;43.43;;;17.80;;
9761;SDS011;4920;49.594;11.022;2024-01-15T01:47:36;44.90;;;18.47;;
9761;SDS011;4920;49.594;11.022;2024-01-15T01:50:05;41.30;;;17.13;;
9761;SDS011;4920;49.594;11.022;2024-01-15T01:52:35;45.57;;;18.90;;
9761;SDS011;4920;49.594;11.022;2024-01-15T01:55:04;43.83;;;18.47;;
9761;SDS011;4920;49.594;11.022;2024-01-15T01:57:37;45.60;;;18.07;;
9761;SDS011;4920;49.594;11.022;2024-01-15T02:00:06;42.47;;;18.43;;
9761;SDS011;4920;49.594;11.022;2024-01-15T02:02:39;47.77;;;18.80;;
9761;SDS011;4920;49.594;11.022;2024-01-15T02:05:08;45.00;;;19.30;;
9761;SDS011;4920;49.594;11.022;2024-01-15T02:07:37;46.23;;;18.67;;
9761;SDS011;4920;49.594;11.022;2024-01-15T02:10:07;47.97;;;19.17;;
9761;SDS011;4920;49.594;11.022;2024-01-15T02:12:38;45.03;;;18.63;;
9761;SDS011;4920;49.594;11.022;2024-01-15T02:15:07;47.03;;;19.30;;
9761;SDS011;4920;49.594;11.022;2024-01-15T02:17:49;42.23;;;18.87;;
9761;SDS011;4920;49.594;11.022;2024-01-15T02:20:25;43.53;;;18.93;;
9761;SDS011;4920;49.594;11.022;2024-01-15T02:22:54;43.03;;;19.03;;
9761;SDS011;4920;49.594;11.022;2024-01-15T02:25:31;42.63;;;18.70;;
9761;SDS011;4920;49.594;11.022;2024-01-15T02:28:00;43.17;;;19.23;;
9761;SDS011;4920;49.594;11.022;2024-01-15T02:30:30;45.50;;;18.03;;
9761;SDS011;4920;49.594;11.022;2024-01-15T02:33:00;46.83;;;19.43;;
9761;SDS011;4920;49.594;11.022;2024-01-15T02:35:29;41.93;;;18.33;;
9761;SDS011;4920;49.594;11.022;2024-01-15T02:37:57;45.90;;;19.57;;
9761;SDS011;4920;49.594;11.022;2024-01-15T02:40:28;40.53;;;17.43;;
9761;SDS011;4920;49.594;11.022;2024-01-15T02:42:57;44.30;;;19.13;;
9761;SDS011;4920;49.594;11.022;2024-01-15T02:45:26;40.67;;;18.17;;
9761;SDS011;4920;49.594;11.022;2024-01-15T02:47:55;48.23;;;19.37;;
9761;SDS011;4920;49.594;11.022;2024-01-15T02:50:24;44.70;;;19.13;;
9761;SDS011;4920;49.594;11.022;2024-01-15T02:52:54;41.67;;;18.53;;
9761;SDS011;4920;49.594;11.022;2024-01-15T02:55:23;41.07;;;18.17;;
9761;SDS011;4920;49.594;11.022;2024-01-15T02:57:53;44.13;;;18.73;;
9761;SDS011;4920;49.594;11.022;2024-01-15T03:00:22;46.13;;;18.90;;
9761;SDS011;4920;49.594;11.022;2024-01-15T03:02:51;43.33;;;18.50;;
9761;SDS011;4920;49.594;11.022;2024-01-15T03:05:20;43.87;;;18.70;;
9761;SDS011;4920;49.594;11.022;2024-01-15T03:07:49;41.27;;;18.17;;
9761;SDS011;4920;49.594;11.022;2024-01-15T03:10:18;42.53;;;18.20;;
9761;SDS011;4920;49.594;11.022;2024-01-15T03:12:47;45.33;;;18.90;;
9761;SDS011;4920;49.594;11.022;2024-01-15T03:15:18;37.43;;;16.90;;
9761;SDS011;4920;49.594;11.022;2024-01-15T03:17:47;36.60;;;17.53;;
9761;SDS011;4920;49.594;11.022;2024-01-15T03:20:16;38.83;;;17.67;;
9761;SDS011;4920;49.594;11.022;2024-01-15T03:22:45;43.03;;;17.90;;
9761;SDS011;4920;49.594;11.022;2024-01-15T03:25:14;38.63;;;18.13;;
9761;SDS011;4920;49.594;11.022;2024-01-15T03:27:43;41.97;;;16.80;;
9761;SDS011;4920;49.594;11.022;2024-01-15T03:30:12;39.00;;;17.33;;
9761;SDS011;4920;49.594;11.022;2024-01-15T03:32:43;37.40;;;17.43;;
9761;SDS011;4920;49.594;11.022;2024-01-15T03:35:14;40.77;;;18.13;;
9761;SDS011;4920;49.594;11.022;2024-01-15T03:37:43;38.07;;;17.67;;
9761;SDS011;4920;49.594;11.022;2024-01-15T03:40:12;36.63;;;17.27;;
9761;SDS011;4920;49.594;11.022;2024-01-15T03:42:46;39.07;;;17.97;;
9761;SDS011;4920;49.594;11.022;2024-01-15T03:45:16;39.93;;;17.20;;
9761;SDS011;4920;49.594;11.022;2024-01-15T03:47:46;39.67;;;17.40;;
9761;SDS011;4920;49.594;11.022;2024-01-15T03:50:15;38.90;;;16.47;;
9761;SDS011;4920;49.594;11.022;2024-01-15T03:52:44;38.37;;;16.30;;
9761;SDS011;4920;49.594;11.022;2024-01-15T03:55:13;34.33;;;16.87;;
9761;SDS011;4920;49.594;11.022;2024-01-15T03:57:42;32.00;;;15.70;;
9761;SDS011;4920;49.594;11.022;2024-01-15T04:00:13;35.07;;;15.70;;
9761;SDS011;4920;49.594;11.022;2024-01-15T04:02:46;37.00;;;16.07;;
9761;SDS011;4920;49.594;11.022;2024-01-15T04:05:15;39.97;;;16.83;;
9761;SDS011;4920;49.594;11.022;2024-01-15T04:07:44;34.07;;;15.53;;
9761;SDS011;4920;49.594;11.022;2024-01-15T04:10:13;34.43;;;15.47;;
9761;SDS011;4920;49.594;11.022;2024-01-15T04:12:42;33.37;;;15.10;;
9761;SDS011;4920;49.594;11.022;2024-01-15T04:15:13;33.53;;;14.93;;
9761;SDS011;4920;49.594;11.022;2024-01-15T04:17:42;33.60;;;15.43;;
9761;SDS011;4920;49.594;11.022;2024-01-15T04:20:12;31.30;;;13.83;;
9761;SDS011;4920;49.594;11.022;2024-01-15T04:22:41;34.63;;;15.57;;
9761;SDS011;4920;49.594;11.022;2024-01-15T04:25:12;35.53;;;15.63;;
9761;SDS011;4920;49.594;11.022;2024-01-15T04:27:41;32.00;;;15.13;;
9761;SDS011;4920;49.594;11.022;2024-01-15T04:30:10;32.60;;;14.80;;
9761;SDS011;4920;49.594;11.022;2024-01-15T04:32:40;30.90;;;15.07;;
9761;SDS011;4920;49.594;11.022;2024-01-15T04:35:09;30.37;;;14.70;;
9761;SDS011;4920;49.594;11.022;2024-01-15T04:37:40;30.80;;;15.00;;
9761;SDS011;4920;49.594;11.022;2024-01-15T04:40:10;32.03;;;14.20;;
9761;SDS011;4920;49.594;11.022;2024-01-15T04:42:40;30.43;;;14.77;;
9761;SDS011;4920;49.594;11.022;2024-01-15T04:45:09;32.27;;;13.83;;
9761;SDS011;4920;49.594;11.022;2024-01-15T04:47:38;32.10;;;14.70;;
9761;SDS011;4920;49.594;11.022;2024-01-15T04:50:08;30.37;;;14.27;;
9761;SDS011;4920;49.594;11.022;2024-01-15T04:52:37;31.33;;;14.20;;
9761;SDS011;4920;49.594;11.022;2024-01-15T04:55:08;34.87;;;14.70;;
9761;SDS011;4920;49.594;11.022;2024-01-15T04:57:37;30.87;;;14.90;;
9761;SDS011;4920;49.594;11.022;2024-01-15T05:00:06;31.50;;;14.63;;
9761;SDS011;4920;49.594;11.022;2024-01-15T05:02:36;34.03;;;14.77;;
9761;SDS011;4920;49.594;11.022;2024-01-15T05:05:04;30.90;;;14.23;;
9761;SDS011;4920;49.594;11.022;2024-01-15T05:07:34;30.80;;;14.20;;
9761;SDS011;4920;49.594;11.022;2024-01-15T05:10:03;31.07;;;14.67;;
9761;SDS011;4920;49.594;11.022;2024-01-15T05:12:34;31.63;;;14.03;;
9761;SDS011;4920;49.594;11.022;2024-01-15T05:15:03;30.43;;;14.27;;
9761;SDS011;4920;49.594;11.022;2024-01-15T05:17:32;27.37;;;13.03;;
9761;SDS011;4920;49.594;11.022;2024-01-15T05:20:02;32.17;;;14.30;;
9761;SDS011;4920;49.594;11.022;2024-01-15T05:22:31;32.30;;;14.67;;
9761;SDS011;4920;49.594;11.022;2024-01-15T05:25:00;28.67;;;13.23;;
9761;SDS011;4920;49.594;11.022;2024-01-15T05:27:29;33.77;;;15.20;;
9761;SDS011;4920;49.594;11.022;2024-01-15T05:30:00;31.00;;;14.03;;
9761;SDS011;4920;49.594;11.022;2024-01-15T05:32:29;31.10;;;14.83;;
9761;SDS011;4920;49.594;11.022;2024-01-15T05:34:58;33.50;;;14.27;;
9761;SDS011;4920;49.594;11.022;2024-01-15T05:37:27;31.13;;;14.40;;
9761;SDS011;4920;49.594;11.022;2024-01-15T05:39:56;30.70;;;13.90;;
9761;SDS011;4920;49.594;11.022;2024-01-15T05:42:25;31.37;;;14.80;;
9761;SDS011;4920;49.594;11.022;2024-01-15T05:44:57;29.67;;;13.70;;
9761;SDS011;4920;49.594;11.022;2024-01-15T05:47:31;29.47;;;14.00;;
9761;SDS011;4920;49.594;11.022;2024-01-15T05:50:01;30.93;;;14.80;;
9761;SDS011;4920;49.594;11.022;2024-01-15T05:52:30;33.07;;;14.03;;
9761;SDS011;4920;49.594;11.022;2024-01-15T05:54:59;30.37;;;13.80;;
9761;SDS011;4920;49.594;11.022;2024-01-15T05:57:28;33.97;;;14.23;;
9761;SDS011;4920;49.594;11.022;2024-01-15T05:59:57;31.30;;;13.47;;
9761;SDS011;4920;49.594;11.022;2024-01-15T06:02:26;36.47;;;14.70;;
9761;SDS011;4920;49.594;11.022;2024-01-15T06:04:57;29.83;;;14.50;;
9761;SDS011;4920;49.594;11.022;2024-01-15T06:07:26;32.73;;;14.77;;
9761;SDS011;4920;49.594;11.022;2024-01-15T06:09:55;32.20;;;14.83;;
9761;SDS011;4920;49.594;11.022;2024-01-15T06:12:25;30.97;;;14.53;;
9761;SDS011;4920;49.594;11.022;2024-01-15T06:14:54;38.47;;;14.43;;
9761;SDS011;4920;49.594;11.022;2024-01-15T06:17:23;32.60;;;15.33;;
9761;SDS011;4920;49.594;11.022;2024-01-15T06:19:52;39.13;;;15.23;;
9761;SDS011;4920;49.594;11.022;2024-01-15T06:22:23;33.90;;;15.60;;
9761;SDS011;4920;49.594;11.022;2024-01-15T06:24:52;32.53;;;15.03;;
9761;SDS011;4920;49.594;11.022;2024-01-15T06:27:22;33.63;;;15.03;;
9761;SDS011;4920;49.594;11.022;2024-01-15T06:29:51;31.63;;;14.37;;
9761;SDS011;4920;49.594;11.022;2024-01-15T06:32:20;35.27;;;14.67;;
9761;SDS011;4920;49.594;11.022;2024-01-15T06:34:49;33.40;;;14.90;;
9761;SDS011;4920;49.594;11.022;2024-01-15T06:37:18;36.80;;;14.33;;
9761;SDS011;4920;49.594;11.022;2024-01-15T06:39:48;32.93;;;15.77;;
9761;SDS011;4920;49.594;11.022;2024-01-15T06:42:18;36.07;;;15.50;;
9761;SDS011;4920;49.594;11.022;2024-01-15T06:44:49;40.80;;;18.33;;
9761;SDS011;4920;49.594;11.022;2024-01-15T06:47:17;42.53;;;18.63;;
9761;SDS011;4920;49.594;11.022;2024-01-15T06:49:47;34.90;;;19.53;;
9761;SDS011;4920;49.594;11.022;2024-01-15T06:52:17;32.50;;;14.73;;
9761;SDS011;4920;49.594;11.022;2024-01-15T06:54:46;30.07;;;14.83;;
9761;SDS011;4920;49.594;11.022;2024-01-15T06:57:17;31.73;;;14.27;;
9761;SDS011;4920;49.594;11.022;2024-01-15T06:59:46;36.80;;;17.87;;
9761;SDS011;4920;49.594;11.022;2024-01-15T07:02:16;34.70;;;16.43;;
9761;SDS011;4920;49.594;11.022;2024-01-15T07:04:44;30.07;;;13.83;;
9761;SDS011;4920;49.594;11.022;2024-01-15T07:07:13;32.13;;;15.30;;
9761;SDS011;4920;49.594;11.022;2024-01-15T07:09:42;37.27;;;15.80;;
9761;SDS011;4920;49.594;11.022;2024-01-15T07:12:11;35.23;;;14.83;;
9761;SDS011;4920;49.594;11.022;2024-01-15T07:14:42;31.43;;;14.63;;
9761;SDS011;4920;49.594;11.022;2024-01-15T07:17:11;36.40;;;15.83;;
9761;SDS011;4920;49.594;11.022;2024-01-15T07:19:40;35.77;;;15.57;;
9761;SDS011;4920;49.594;11.022;2024-01-15T07:22:09;36.40;;;14.77;;
9761;SDS011;4920;49.594;11.022;2024-01-15T07:24:38;29.47;;;13.90;;
9761;SDS011;4920;49.594;11.022;2024-01-15T07:27:07;38.47;;;15.90;;
9761;SDS011;4920;49.594;11.022;2024-01-15T07:29:37;37.50;;;15.97;;
9761;SDS011;4920;49.594;11.022;2024-01-15T07:32:07;35.20;;;14.50;;
9761;SDS011;4920;49.594;11.022;2024-01-15T07:34:37;34.53;;;17.50;;
9761;SDS011;4920;49.594;11.022;2024-01-15T07:37:06;32.93;;;15.93;;
9761;SDS011;4920;49.594;11.022;2024-01-15T07:39:35;37.13;;;20.00;;
9761;SDS011;4920;49.594;11.022;2024-01-15T07:42:05;28.37;;;13.93;;
9761;SDS011;4920;49.594;11.022;2024-01-15T07:44:34;30.90;;;14.77;;
9761;SDS011;4920;49.594;11.022;2024-01-15T07:47:03;32.33;;;13.93;;
9761;SDS011;4920;49.594;11.022;2024-01-15T07:49:34;29.70;;;14.00;;
9761;SDS011;4920;49.594;11.022;2024-01-15T07:52:04;29.17;;;13.73;;
9761;SDS011;4920;49.594;11.022;2024-01-15T07:54:33;31.67;;;14.10;;
9761;SDS011;4920;49.594;11.022;2024-01-15T07:57:02;28.83;;;13.33;;
9761;SDS011;4920;49.594;11.022;2024-01-15T07:59:31;28.20;;;13.27;;
9761;SDS011;4920;49.594;11.022;2024-01-15T08:02:00;27.00;;;13.47;;
9761;SDS011;4920;49.594;11.022;2024-01-15T08:04:29;27.03;;;12.57;;
9761;SDS011;4920;49.594;11.022;2024-01-15T08:07:00;32.17;;;13.90;;
9761;SDS011;4920;49.594;11.022;2024-01-15T08:09:30;31.83;;;14.37;;
9761;SDS011;4920;49.594;11.022;2024-01-15T08:11:59;34.00;;;14.20;;
9761;SDS011;4920;49.594;11.022;2024-01-15T08:14:29;30.77;;;13.93;;
9761;SDS011;4920;49.594;11.022;2024-01-15T08:16:58;31.17;;;14.33;;
9761;SDS011;4920;49.594;11.022;2024-01-15T08:19:29;31.13;;;13.83;;
9761;SDS011;4920;49.594;11.022;2024-01-15T08:22:00;29.13;;;14.07;;
9761;SDS011;4920;49.594;11.022;2024-01-15T08:24:29;29.57;;;14.27;;
9761;SDS011;4920;49.594;11.022;2024-01-15T08:26:58;30.67;;;14.03;;
9761;SDS011;4920;49.594;11.022;2024-01-15T08:29:27;31.87;;;14.13;;
9761;SDS011;4920;49.594;11.022;2024-01-15T08:31:59;29.57;;;14.53;;
9761;SDS011;4920;49.594;11.022;2024-01-15T08:34:28;34.57;;;14.50;;
9761;SDS011;4920;49.594;11.022;2024-01-15T08:36:59;28.10;;;14.20;;
9761;SDS011;4920;49.594;11.022;2024-01-15T08:39:32;27.60;;;13.40;;
9761;SDS011;4920;49.594;11.022;2024-01-15T08:42:02;26.03;;;13.33;;
9761;SDS011;4920;49.594;11.022;2024-01-15T08:44:31;30.10;;;13.90;;
9761;SDS011;4920;49.594;11.022;2024-01-15T08:47:00;26.47;;;13.53;;
9761;SDS011;4920;49.594;11.022;2024-01-15T08:49:30;28.97;;;13.30;;
9761;SDS011;4920;49.594;11.022;2024-01-15T08:52:00;29.57;;;14.07;;
9761;SDS011;4920;49.594;11.022;2024-01-15T08:54:29;27.73;;;13.60;;
9761;SDS011;4920;49.594;11.022;2024-01-15T08:56:58;29.67;;;14.40;;
9761;SDS011;4920;49.594;11.022;2024-01-15T08:59:27;30.37;;;14.27;;
9761;SDS011;4920;49.594;11.022;2024-01-15T09:01:57;27.27;;;13.63;;
9761;SDS011;4920;49.594;11.022;2024-01-15T09:04:26;27.93;;;13.03;;
9761;SDS011;4920;49.594;11.022;2024-01-15T09:06:55;25.60;;;13.43;;
9761;SDS011;4920;49.594;11.022;2024-01-15T09:09:26;28.17;;;13.27;;
9761;SDS011;4920;49.594;11.022;2024-01-15T09:11:55;25.93;;;13.80;;
9761;SDS011;4920;49.594;11.022;2024-01-15T09:14:24;30.37;;;13.90;;
9761;SDS011;4920;49.594;11.022;2024-01-15T09:17:03;26.07;;;13.10;;
9761;SDS011;4920;49.594;11.022;2024-01-15T09:19:32;26.90;;;13.37;;
9761;SDS011;4920;49.594;11.022;2024-01-15T09:22:02;26.93;;;13.87;;
9761;SDS011;4920;49.594;11.022;2024-01-15T09:24:32;25.33;;;13.43;;
9761;SDS011;4920;49.594;11.022;2024-01-15T09:27:01;29.57;;;13.67;;
9761;SDS011;4920;49.594;11.022;2024-01-15T09:29:30;24.20;;;12.87;;
9761;SDS011;4920;49.594;11.022;2024-01-15T09:31:59;28.50;;;13.50;;
9761;SDS011;4920;49.594;11.022;2024-01-15T09:34:30;25.60;;;13.40;;
9761;SDS011;4920;49.594;11.022;2024-01-15T09:36:59;25.93;;;13.13;;
9761;SDS011;4920;49.594;11.022;2024-01-15T09:39:29;27.50;;;13.30;;
9761;SDS011;4920;49.594;11.022;2024-01-15T09:42:00;28.20;;;13.17;;
9761;SDS011;4920;49.594;11.022;2024-01-15T09:44:30;26.53;;;12.57;;
9761;SDS011;4920;49.594;11.022;2024-01-15T09:47:00;24.10;;;12.43;;
9761;SDS011;4920;49.594;11.022;2024-01-15T09:49:29;21.20;;;12.53;;
9761;SDS011;4920;49.594;11.022;2024-01-15T09:51:59;26.87;;;12.93;;
9761;SDS011;4920;49.594;11.022;2024-01-15T09:54:37;24.93;;;12.97;;
9761;SDS011;4920;49.594;11.022;2024-01-15T09:57:08;26.90;;;13.27;;
9761;SDS011;4920;49.594;11.022;2024-01-15T09:59:38;25.90;;;13.10;;
9761;SDS011;4920;49.594;11.022;2024-01-15T10:02:08;24.50;;;12.17;;
9761;SDS011;4920;49.594;11.022;2024-01-15T10:04:40;25.93;;;12.93;;
9761;SDS011;4920;49.594;11.022;2024-01-15T10:07:10;31.20;;;13.03;;
9761;SDS011;4920;49.594;11.022;2024-01-15T10:09:43;26.10;;;12.53;;
9761;SDS011;4920;49.594;11.022;2024-01-15T10:12:14;20.93;;;12.10;;
9761;SDS011;4920;49.594;11.022;2024-01-15T10:14:43;25.93;;;12.43;;
9761;SDS011;4920;49.594;11.022;2024-01-15T10:17:12;22.47;;;12.13;;
9761;SDS011;4920;49.594;11.022;2024-01-15T10:19:42;25.20;;;12.50;;
9761;SDS011;4920;49.594;11.022;2024-01-15T10:22:16;24.30;;;12.57;;
9761;SDS011;4920;49.594;11.022;2024-01-15T10:24:46;25.80;;;12.07;;
9761;SDS011;4920;49.594;11.022;2024-01-15T10:27:17;22.83;;;11.50;;
9761;SDS011;4920;49.594;11.022;2024-01-15T10:29:45;25.93;;;11.87;;
9761;SDS011;4920;49.594;11.022;2024-01-15T10:32:14;22.20;;;11.63;;
9761;SDS011;4920;49.594;11.022;2024-01-15T10:34:43;22.47;;;11.87;;
9761;SDS011;4920;49.594;11.022;2024-01-15T10:37:13;21.37;;;11.83;;
9761;SDS011;4920;49.594;11.022;2024-01-15T10:39:42;23.40;;;12.33;;
9761;SDS011;4920;49.594;11.022;2024-01-15T10:42:11;21.43;;;11.83;;
9761;SDS011;4920;49.594;11.022;2024-01-15T10:44:43;22.27;;;11.93;;
9761;SDS011;4920;49.594;11.022;2024-01-15T10:47:13;21.83;;;11.80;;
9761;SDS011;4920;49.594;11.022;2024-01-15T10:49:44;20.90;;;11.57;;
9761;SDS011;4920;49.594;11.022;2024-01-15T10:52:14;20.63;;;11.40;;
9761;SDS011;4920;49.594;11.022;2024-01-15T10:54:44;21.30;;;12.23;;
9761;SDS011;4920;49.594;11.022;2024-01-15T10:57:14;22.70;;;11.57;;
9761;SDS011;4920;49.594;11.022;2024-01-15T10:59:46;19.13;;;10.53;;
9761;SDS011;4920;49.594;11.022;2024-01-15T11:02:15;21.43;;;11.57;;
9761;SDS011;4920;49.594;11.022;2024-01-15T11:04:44;18.67;;;10.53;;
9761;SDS011;4920;49.594;11.022;2024-01-15T11:07:13;23.17;;;11.33;;
9761;SDS011;4920;49.594;11.022;2024-01-15T11:09:42;21.90;;;11.53;;
9761;SDS011;4920;49.594;11.022;2024-01-15T11:12:12;22.63;;;11.33;;
9761;SDS011;4920;49.594;11.022;2024-01-15T11:14:47;19.13;;;11.27;;
9761;SDS011;4920;49.594;11.022;2024-01-15T11:17:17;20.03;;;11.37;;
9761;SDS011;4920;49.594;11.022;2024-01-15T11:19:47;18.93;;;10.57;;
9761;SDS011;4920;49.594;11.022;2024-01-15T11:25:17;23.03;;;11.47;;
9761;SDS011;4920;49.594;11.022;2024-01-15T11:27:47;21.10;;;11.40;;
9761;SDS011;4920;49.594;11.022;2024-01-15T11:30:24;20.37;;;11.37;;
9761;SDS011;4920;49.594;11.022;2024-01-15T11:32:54;27.10;;;11.50;;
9761;SDS011;4920;49.594;11.022;2024-01-15T12:08:34;21.50;;;12.47;;
9761;SDS011;4920;49.594;11.022;2024-01-15T12:11:05;17.93;;;10.90;;
9761;SDS011;4920;49.594;11.022;2024-01-15T12:13:39;18.37;;;11.53;;
9761;SDS011;4920;49.594;11.022;2024-01-15T12:16:08;18.00;;;11.73;;
9761;SDS011;4920;49.594;11.022;2024-01-15T12:18:37;20.30;;;10.67;;
9761;SDS011;4920;49.594;11.022;2024-01-15T12:21:06;21.73;;;11.57;;
9761;SDS011;4920;49.594;11.022;2024-01-15T12:23:36;19.57;;;11.50;;
9761;SDS011;4920;49.594;11.022;2024-01-15T12:26:07;19.67;;;11.10;;
9761;SDS011;4920;49.594;11.022;2024-01-15T12:28:36;20.40;;;11.70;;
9761;SDS011;4920;49.594;11.022;2024-01-15T12:31:06;19.47;;;11.03;;
9761;SDS011;4920;49.594;11.022;2024-01-15T12:33:35;19.23;;;11.27;;
9761;SDS011;4920;49.594;11.022;2024-01-15T12:36:05;20.63;;;11.23;;
9761;SDS011;4920;49.594;11.022;2024-01-15T12:38:34;20.57;;;11.27;;
9761;SDS011;4920;49.594;11.022;2024-01-15T12:41:05;19.33;;;10.60;;
9761;SDS011;4920;49.594;11.022;2024-01-15T12:43:34;19.57;;;10.50;;
9761;SDS011;4920;49.594;11.022;2024-01-15T12:46:03;17.83;;;10.37;;
9761;SDS011;4920;49.594;11.022;2024-01-15T12:48:32;18.60;;;10.73;;
9761;SDS011;4920;49.594;11.022;2024-01-15T12:51:05;18.37;;;10.57;;
9761;SDS011;4920;49.594;11.022;2024-01-15T12:53:34;16.17;;;10.10;;
9761;SDS011;4920;49.594;11.022;2024-01-15T12:56:05;16.87;;;11.07;;
9761;SDS011;4920;49.594;11.022;2024-01-15T12:58:34;20.03;;;11.83;;
9761;SDS011;4920;49.594;11.022;2024-01-15T13:01:03;17.37;;;9.77;;
9761;SDS011;4920;49.594;11.022;2024-01-15T13:03:32;15.97;;;9.93;;
9761;SDS011;4920;49.594;11.022;2024-01-15T13:06:02;16.10;;;9.97;;
9761;SDS011;4920;49.594;11.022;2024-01-15T13:08:31;15.83;;;10.00;;
9761;SDS011;4920;49.594;11.022;2024-01-15T13:11:02;16.60;;;10.00;;
9761;SDS011;4920;49.594;11.022;2024-01-15T13:13:31;18.07;;;10.27;;
9761;SDS011;4920;49.594;11.022;2024-01-15T13:16:01;14.97;;;9.90;;
9761;SDS011;4920;49.594;11.022;2024-01-15T13:18:30;16.67;;;10.03;;
9761;SDS011;4920;49.594;11.022;2024-01-15T13:20:59;17.83;;;10.83;;
9761;SDS011;4920;49.594;11.022;2024-01-15T13:23:29;15.90;;;9.87;;
9761;SDS011;4920;49.594;11.022;2024-01-15T13:25:58;17.47;;;10.43;;
9761;SDS011;4920;49.594;11.022;2024-01-15T13:28:29;16.43;;;9.60;;
9761;SDS011;4920;49.594;11.022;2024-01-15T13:30:58;18.60;;;10.23;;
9761;SDS011;4920;49.594;11.022;2024-01-15T13:33:27;17.97;;;10.70;;
9761;SDS011;4920;49.594;11.022;2024-01-15T13:35:56;16.20;;;9.80;;
9761;SDS011;4920;49.594;11.022;2024-01-15T13:38:25;17.57;;;10.47;;
9761;SDS011;4920;49.594;11.022;2024-01-15T13:40:54;17.17;;;10.57;;
9761;SDS011;4920;49.594;11.022;2024-01-15T13:43:24;18.13;;;11.20;;
9761;SDS011;4920;49.594;11.022;2024-01-15T13:45:55;16.07;;;9.93;;
9761;SDS011;4920;49.594;11.022;2024-01-15T13:48:24;15.27;;;10.07;;
9761;SDS011;4920;49.594;11.022;2024-01-15T13:50:53;15.53;;;9.97;;
9761;SDS011;4920;49.594;11.022;2024-01-15T13:53:22;20.10;;;10.40;;
9761;SDS011;4920;49.594;11.022;2024-01-15T13:55:51;16.40;;;10.20;;
9761;SDS011;4920;49.594;11.022;2024-01-15T13:58:20;15.00;;;9.80;;
9761;SDS011;4920;49.594;11.022;2024-01-15T14:00:49;17.67;;;10.37;;
9761;SDS011;4920;49.594;11.022;2024-01-15T14:03:21;20.33;;;10.83;;
9761;SDS011;4920;49.594;11.022;2024-01-15T14:05:50;24.17;;;11.17;;
9761;SDS011;4920;49.594;11.022;2024-01-15T14:08:19;20.13;;;10.43;;
9761;SDS011;4920;49.594;11.022;2024-01-15T14:10:48;14.83;;;9.47;;
9761;SDS011;4920;49.594;11.022;2024-01-15T14:13:17;16.07;;;9.43;;
9761;SDS011;4920;49.594;11.022;2024-01-15T14:15:46;14.47;;;8.70;;
9761;SDS011;4920;49.594;11.022;2024-01-15T14:18:18;14.13;;;8.80;;
9761;SDS011;4920;49.594;11.022;2024-01-15T14:20:51;15.07;;;9.00;;
9761;SDS011;4920;49.594;11.022;2024-01-15T14:23:21;15.37;;;8.63;;
9761;SDS011;4920;49.594;11.022;2024-01-15T14:25:50;13.70;;;8.27;;
9761;SDS011;4920;49.594;11.022;2024-01-15T14:28:19;11.60;;;7.93;;
9761;SDS011;4920;49.594;11.022;2024-01-15T14:30:50;12.77;;;7.63;;
9761;SDS011;4920;49.594;11.022;2024-01-15T14:33:19;13.17;;;7.77;;
9761;SDS011;4920;49.594;11.022;2024-01-15T14:35:49;11.70;;;7.33;;
9761;SDS011;4920;49.594;11.022;2024-01-15T14:38:19;12.23;;;6.83;;
9761;SDS011;4920;49.594;11.022;2024-01-15T14:40:49;11.17;;;6.93;;
9761;SDS011;4920;49.594;11.022;2024-01-15T14:43:18;11.67;;;6.97;;
9761;SDS011;4920;49.594;11.022;2024-01-15T14:45:48;15.17;;;7.40;;
9761;SDS011;4920;49.594;11.022;2024-01-15T14:48:17;10.73;;;7.10;;
9761;SDS011;4920;49.594;11.022;2024-01-15T14:50:46;9.87;;;7.13;;
9761;SDS011;4920;49.594;11.022;2024-01-15T14:53:17;13.10;;;7.37;;
9761;SDS011;4920;49.594;11.022;2024-01-15T14:55:47;11.43;;;7.83;;
9761;SDS011;4920;49.594;11.022;2024-01-15T14:58:16;11.53;;;7.50;;
9761;SDS011;4920;49.594;11.022;2024-01-15T15:00:46;10.40;;;7.50;;
9761;SDS011;4920;49.594;11.022;2024-01-15T15:03:16;11.57;;;8.10;;
9761;SDS011;4920;49.594;11.022;2024-01-15T15:05:45;10.77;;;7.70;;
9761;SDS011;4920;49.594;11.022;2024-01-15T15:08:15;12.47;;;7.90;;
9761;SDS011;4920;49.594;11.022;2024-01-15T15:10:44;10.47;;;7.43;;
9761;SDS011;4920;49.594;11.022;2024-01-15T15:13:15;14.03;;;8.07;;
9761;SDS011;4920;49.594;11.022;2024-01-15T15:15:59;12.27;;;7.83;;
9761;SDS011;4920;49.594;11.022;2024-01-15T15:18:28;13.87;;;7.90;;
9761;SDS011;4920;49.594;11.022;2024-01-15T15:20:58;13.00;;;8.23;;
9761;SDS011;4920;49.594;11.022;2024-01-15T15:23:27;12.67;;;8.37;;
9761;SDS011;4920;49.594;11.022;2024-01-15T15:25:56;13.80;;;8.70;;